Latest Weather Observations for Eucla

IDW60801

Issued at 10:02 am WST Monday 26 January 2015 (issued every 30 minutes, with the page automatically refreshed every 10 minutes)

About weather observations | Map of weather stations | Latest weather observations for WA | Other Formats
Station Details ID: 011003 Name: EUCLA Lat: -31.68 Lon: 128.90 Height: 93.1 m
Data from the previous 72 hours. | See also: Recent months at Eucla
Date/Time
WST
Temp
°C
App
Temp
°C
Dew
Point
Rel
Hum
%
Delta-T
°C
Wind Press
QNH
hPa
Press
MSL
hPa
Rain
since 9 am
mm
Dir
 
Spd
km/h
Gust
km/h
Spd
kts
Gust
kts
26/10:00am 21.1 17.6 8.7 45 6.5 ESE 17 30 9 16 1020.2 1019.8 0.0
26/09:30am 20.4 16.3 7.7 44 6.5 ESE 19 32 10 17 1020.4 1020.0 0.0
26/09:00am 20.3 16.2 8.0 45 6.4 E 19 28 10 15 1020.5 1020.1 0.0
26/08:30am 20.0 15.9 8.0 46 6.2 ESE 19 30 10 16 1020.5 1020.1 0.0
26/08:00am 19.5 15.4 8.5 49 5.7 ESE 20 32 11 17 1020.3 1019.9 0.0
26/07:30am 19.1 15.2 8.7 51 5.4 ESE 19 28 10 15 1020.1 1019.7 0.0
26/07:00am 18.7 15.2 8.9 53 5.1 ESE 17 28 9 15 1020.1 1019.7 0.0
26/06:30am 18.5 14.9 8.2 51 5.3 ESE 17 26 9 14 1019.7 1019.3 0.0
26/06:00am 19.0 15.6 7.8 48 5.7 ESE 15 24 8 13 1019.5 1019.1 0.0
26/05:30am 17.8 14.4 7.8 52 5.1 ESE 15 26 8 14 1019.3 1018.9 0.0
26/05:00am 17.6 13.9 7.9 53 4.9 ESE 17 28 9 15 1019.1 1018.7 0.0
26/04:30am 17.4 13.7 8.0 54 4.8 SE 17 24 9 13 1018.6 1018.3 0.0
26/04:00am 17.5 14.2 8.1 54 4.8 ESE 15 28 8 15 1018.4 1018.1 0.0
26/03:30am 17.4 14.2 8.3 55 4.7 ESE 15 19 8 10 1018.3 1018.0 0.0
26/03:00am 17.5 14.0 8.6 56 4.6 SE 17 26 9 14 1018.0 1017.7 0.0
26/02:30am 17.5 15.0 8.4 55 4.7 SE 11 19 6 10 1018.0 1017.7 0.0
26/02:00am 17.5 14.0 7.3 51 5.1 SE 15 28 8 15 1018.1 1017.8 0.0
26/01:30am 17.5 14.1 7.5 52 5.1 SE 15 24 8 13 1018.0 1017.7 0.0
26/01:00am 17.6 14.1 8.7 56 4.6 SE 17 26 9 14 1018.1 1017.8 0.0
26/12:30am 17.7 14.2 8.8 56 4.6 ESE 17 26 9 14 1018.3 1018.0 0.0
26/12:00am 17.7 14.3 9.1 57 4.5 ESE 17 26 9 14 1018.1 1017.8 0.0
 
Date/Time
WST
Temp
°C
App
Temp
°C
Dew
Point
Rel
Hum
%
Delta-T
°C
Wind Press
QNH
hPa
Press
MSL
hPa
Rain
since 9 am
mm
Dir
 
Spd
km/h
Gust
km/h
Spd
kts
Gust
kts
25/11:30pm 17.7 14.3 9.1 57 4.5 SE 17 24 9 13 1018.5 1018.2 0.0
25/11:00pm 17.8 14.6 9.9 60 4.2 ESE 17 28 9 15 1018.5 1018.2 0.0
25/10:30pm 17.7 14.7 9.3 58 4.4 ESE 15 22 8 12 1018.4 1018.1 0.0
25/10:00pm 17.5 14.2 8.1 54 4.8 SE 15 20 8 11 1018.7 1018.4 0.0
25/09:30pm 17.7 14.5 8.6 55 4.7 ESE 15 26 8 14 1018.9 1018.6 0.0
25/09:00pm 17.3 14.4 9.5 60 4.1 SE 15 24 8 13 1018.9 1018.6 0.0
25/08:30pm 17.6 14.5 8.7 56 4.6 SE 15 28 8 15 1018.8 1018.5 0.0
25/08:00pm 17.4 14.1 8.0 54 4.8 SSE 15 22 8 12 1018.9 1018.6 0.0
25/07:30pm 17.4 14.2 8.5 56 4.6 SSE 15 24 8 13 1018.9 1018.6 0.0
25/07:00pm 17.2 14.2 7.8 54 4.8 SE 13 20 7 11 1018.9 1018.6 0.0
25/06:30pm 17.8 14.5 8.1 53 5.0 SE 15 26 8 14 1018.8 1018.5 0.0
25/06:00pm 18.3 14.4 8.6 53 5.0 SE 19 26 10 14 1018.6 1018.3 0.0
25/05:30pm 18.9 15.1 9.1 53 5.2 SE 19 28 10 15 1018.4 1018.1 0.0
25/05:00pm 19.1 15.4 9.3 53 5.2 SE 19 30 10 16 1018.1 1017.8 0.0
25/04:30pm 19.3 15.3 9.2 52 5.3 SE 20 28 11 15 1017.9 1017.6 0.0
25/04:00pm 20.2 16.2 9.2 49 5.8 SE 20 30 11 16 1017.9 1017.6 0.0
25/03:30pm 21.0 17.1 9.3 47 6.3 SSE 20 32 11 17 1018.0 1017.7 0.0
25/03:00pm 21.0 17.1 9.3 47 6.2 SE 20 30 11 16 1018.1 1017.8 0.0
25/02:30pm 22.6 18.6 9.0 42 7.3 SSE 20 33 11 18 1018.2 1017.9 0.0
25/02:00pm 21.5 17.6 8.7 44 6.8 SSE 19 26 10 14 1018.1 1017.8 0.0
25/01:30pm 21.8 17.7 8.7 43 7.0 SSE 20 33 11 18 1018.1 1017.8 0.0
25/01:00pm 22.5 18.1 9.0 42 7.2 SE 22 33 12 18 1018.1 1017.8 0.0
25/12:30pm 22.0 18.1 9.5 45 6.7 SE 20 32 11 17 1018.2 1017.9 0.0
25/12:00pm 22.7 18.5 9.8 44 7.0 SE 22 35 12 19 1018.2 1017.9 0.0
25/11:30am 22.4 18.2 9.9 45 6.8 SE 22 35 12 19 1018.4 1018.1 0.0
25/11:00am 22.5 18.8 10.0 45 6.8 SE 20 33 11 18 1018.4 1018.1 0.0
25/10:30am 22.6 18.6 10.4 46 6.7 SE 22 33 12 18 1018.5 1018.2 0.0
25/10:00am 21.4 17.7 10.3 49 6.0 SSE 20 32 11 17 1018.4 1018.1 0.0
25/09:30am 20.7 17.0 10.2 51 5.7 SE 20 32 11 17 1018.2 1017.9 0.0
25/09:00am 20.9 17.4 11.0 53 5.4 SE 20 32 11 17 1018.0 1017.7 0.0
25/08:30am 21.1 17.7 11.2 53 5.5 SE 20 28 11 15 1017.7 1017.4 0.0
25/08:00am 21.5 18.7 11.2 52 5.7 SSE 17 30 9 16 1017.6 1017.3 0.0
25/07:30am 19.4 16.3 11.7 61 4.3 SSE 19 30 10 16 1017.4 1017.1 0.0
25/07:00am 19.6 17.6 11.6 60 4.4 S 13 22 7 12 1017.4 1017.1 0.0
25/06:30am 19.1 16.7 11.4 61 4.2 SSE 15 20 8 11 1017.0 1016.7 0.0
25/06:00am 18.3 16.4 11.8 66 3.6 SSE 13 22 7 12 1016.6 1016.3 0.0
25/05:30am 17.7 15.6 12.4 71 2.9 SSE 15 24 8 13 1015.9 1015.6 0.0
25/05:00am 17.2 15.4 12.1 72 2.8 SSE 13 19 7 10 1015.7 1015.4 0.0
25/04:30am 16.8 15.6 11.7 72 2.8 SSE 9 13 5 7 1015.6 1015.3 0.0
25/04:00am 17.7 16.5 11.5 67 3.4 SSE 9 15 5 8 1015.5 1015.2 0.0
25/03:30am 18.0 16.5 11.8 67 3.4 SSE 11 19 6 10 1015.2 1014.9 0.0
25/03:00am 18.0 16.6 12.2 69 3.2 SSE 11 15 6 8 1015.1 1014.8 0.0
25/02:30am 18.0 16.8 12.7 71 3.0 SSE 11 17 6 9 1015.0 1014.7 0.0
25/02:00am 18.3 16.4 13.0 71 3.0 SSE 15 22 8 12 1015.1 1014.8 0.0
25/01:30am 18.4 16.4 12.6 69 3.3 SSE 15 24 8 13 1015.0 1014.7 0.0
25/01:00am 18.2 16.8 11.0 63 3.9 S 9 15 5 8 1015.0 1014.7 0.0
25/12:30am 18.2 17.2 12.2 68 3.3 SSE 9 15 5 8 1015.2 1014.9 0.0
25/12:00am 18.2 17.2 13.3 73 2.8 SE 11 17 6 9 1015.0 1014.7 0.0
 
Date/Time
WST
Temp
°C
App
Temp
°C
Dew
Point
Rel
Hum
%
Delta-T
°C
Wind Press
QNH
hPa
Press
MSL
hPa
Rain
since 9 am
mm
Dir
 
Spd
km/h
Gust
km/h
Spd
kts
Gust
kts
24/11:30pm 17.8 16.2 12.9 73 2.8 SSE 13 20 7 11 1015.2 1014.9 0.0
24/11:00pm 18.0 16.2 13.3 74 2.7 SSE 15 22 8 12 1015.2 1014.9 0.0
24/10:30pm 18.3 16.5 13.2 72 2.9 SSE 15 26 8 14 1015.5 1015.2 0.0
24/10:00pm 18.7 15.9 12.7 68 3.4 SSE 19 30 10 16 1015.5 1015.2 0.0
24/09:30pm 18.9 16.6 12.9 68 3.4 SSE 17 32 9 17 1015.6 1015.3 0.0
24/09:00pm 19.3 17.2 12.3 64 3.9 S 15 28 8 15 1015.6 1015.3 0.0
24/08:30pm 19.3 17.3 12.6 65 3.8 S 15 24 8 13 1015.6 1015.3 0.0
24/08:00pm 19.4 16.9 12.4 64 3.9 S 17 24 9 13 1015.5 1015.2 0.0
24/07:30pm 19.4 16.8 13.3 68 3.5 S 19 30 10 16 1015.1 1014.8 0.0
24/07:00pm 19.4 17.3 13.6 69 3.3 S 17 28 9 15 1014.8 1014.5 0.0
24/06:30pm 19.9 17.6 14.0 69 3.4 SSW 19 28 10 15 1014.4 1014.1 0.0
24/06:00pm 20.3 17.9 12.5 61 4.4 S 17 28 9 15 1014.3 1014.0 0.0
24/05:30pm 20.8 17.8 12.5 59 4.7 S 20 32 11 17 1014.0 1013.7 0.0
24/05:00pm 21.3 18.1 11.9 55 5.3 SSW 20 33 11 18 1013.9 1013.6 0.0
24/04:30pm 22.0 18.8 12.0 53 5.6 SSW 20 35 11 19 1013.6 1013.3 0.0
24/04:00pm 22.7 19.2 13.5 56 5.3 SSW 24 41 13 22 1013.5 1013.2 0.0
24/03:30pm 23.2 19.2 11.9 49 6.4 SSW 24 46 13 25 1013.5 1013.2 0.0
24/03:00pm 23.9 19.6 12.2 48 6.7 SSW 26 39 14 21 1013.6 1013.3 0.0
24/02:30pm 24.4 20.6 12.4 47 6.9 SSW 24 39 13 21 1013.5 1013.2 0.0
24/02:00pm 23.8 19.0 11.8 47 6.8 SSW 28 41 15 22 1013.5 1013.2 0.0
24/01:30pm 23.9 19.3 12.2 48 6.7 SSW 28 44 15 24 1013.4 1013.1 0.0
24/01:00pm 25.2 21.4 13.7 49 6.8 SSW 26 41 14 22 1013.3 1013.0 0.0
24/12:30pm 24.5 20.1 11.8 45 7.2 SSW 26 41 14 22 1013.3 1013.0 0.0
24/12:00pm 24.6 21.0 12.9 48 6.8 SSW 24 39 13 21 1013.2 1012.9 0.0
24/11:30am 24.7 21.5 13.0 48 6.8 SSW 22 37 12 20 1013.3 1013.0 0.0
24/11:00am 24.5 21.5 13.7 51 6.4 SSW 22 33 12 18 1013.4 1013.1 0.0
24/10:30am 24.3 21.1 13.2 50 6.5 SSW 22 32 12 17 1013.6 1013.3 0.0
24/10:00am 24.0 20.4 13.2 50 6.3 SSW 24 37 13 20 1013.6 1013.3 0.0
24/09:30am 23.5 20.8 13.4 53 5.9 SSW 20 32 11 17 1013.4 1013.1 0.0
24/09:00am 23.5 20.7 13.1 52 6.0 S 20 32 11 17 1013.3 1013.0 0.0
24/08:30am 22.3 20.5 13.4 57 5.2 SW 15 28 8 15 1013.3 1013.0 0.0
24/08:00am 21.7 20.6 13.1 58 4.9 SW 11 19 6 10 1013.2 1012.9 0.0
24/07:30am 20.9 19.6 13.8 64 4.1 W 13 22 7 12 1013.5 1013.2 0.0
24/07:00am 19.0 18.2 14.1 73 2.8 WNW 11 17 6 9 1013.4 1013.1 0.0
24/06:30am 16.7 15.7 13.4 81 1.9 NW 11 13 6 7 1013.4 1013.1 0.0
24/06:00am 14.9 14.2 13.1 89 1.0 NNW 9 13 5 7 1013.0 1012.7 0.0
24/05:30am 13.6 12.7 12.7 94 0.5 NW 9 11 5 6 1012.7 1012.4 0.0
24/05:00am 12.6 11.5 11.8 95 0.4 NW 9 11 5 6 1012.2 1011.8 0.0
24/04:30am 11.9 10.1 11.0 94 0.5 NW 11 11 6 6 1011.8 1011.4 0.0
24/04:00am 12.3 10.7 11.5 95 0.4 NW 11 13 6 7 1011.3 1010.9 0.0
24/03:30am 12.2 10.9 11.3 94 0.5 NW 9 9 5 5 1011.1 1010.7 0.0
24/03:00am 12.0 10.2 10.9 93 0.6 NNW 11 11 6 6 1011.2 1010.8 0.0
24/02:30am 12.4 10.7 11.1 92 0.7 NNW 11 11 6 6 1011.3 1010.9 0.0
24/02:00am 11.8 10.3 10.5 92 0.7 NNW 9 11 5 6 1011.1 1010.7 0.0
24/01:30am 11.8 9.9 10.5 92 0.7 NNW 11 11 6 6 1011.2 1010.8 0.0
24/01:00am 12.1 10.3 10.8 92 0.7 N 11 11 6 6 1011.2 1010.8 0.0
24/12:30am 12.9 11.7 11.6 92 0.7 N 9 9 5 5 1011.3 1010.9 0.0
24/12:00am 13.2 12.4 11.6 90 0.9 N 7 9 4 5 1011.9 1011.5 0.0
 
Date/Time
WST
Temp
°C
App
Temp
°C
Dew
Point
Rel
Hum
%
Delta-T
°C
Wind Press
QNH
hPa
Press
MSL
hPa
Rain
since 9 am
mm
Dir
 
Spd
km/h
Gust
km/h
Spd
kts
Gust
kts
23/11:30pm 13.6 12.8 11.7 88 1.0 NE 7 9 4 5 1012.0 1011.6 0.0
23/11:00pm 12.6 11.3 10.0 84 1.3 ENE 7 7 4 4 1012.3 1011.9 0.0
23/10:30pm 13.2 13.4 10.4 83 1.5 CALM 0 0 0 0 1012.9 1012.6 0.0
23/10:00pm 14.1 14.5 11.1 82 1.6 CALM 0 0 0 0 1013.2 1012.9 0.0
23/09:30pm 15.6 15.0 11.6 77 2.2 SE 6 7 3 4 1013.3 1013.0 0.0
23/09:00pm 17.5 17.0 12.8 74 2.6 SSE 7 9 4 5 1013.3 1013.0 0.0
23/08:30pm 18.0 17.3 13.1 73 2.8 SE 9 13 5 7 1013.4 1013.1 0.0
23/08:00pm 18.2 17.5 13.3 73 2.8 SSE 9 15 5 8 1013.3 1013.0 0.0
23/07:30pm 18.4 17.4 13.3 72 2.9 SSE 11 15 6 8 1013.2 1012.9 0.0
23/07:00pm 18.9 17.4 13.1 69 3.3 SSE 13 19 7 10 1013.1 1012.8 0.0
23/06:30pm 19.4 17.9 13.1 67 3.6 SSE 13 17 7 9 1012.8 1012.5 0.0
23/06:00pm 20.3 17.9 12.5 61 4.4 SSE 17 24 9 13 1012.9 1012.6 0.0
23/05:30pm 21.1 18.7 12.5 58 4.9 S 17 28 9 15 1012.7 1012.4 0.0
23/05:00pm 21.5 19.0 12.4 56 5.2 SSE 17 26 9 14 1012.4 1012.0 0.0
23/04:30pm 21.8 19.3 12.4 55 5.3 SSE 17 24 9 13 1012.4 1012.0 0.0
23/04:00pm 22.5 20.1 12.7 54 5.6 SSE 17 26 9 14 1012.3 1011.9 0.0
23/03:30pm 22.7 20.6 12.3 52 5.9 SE 15 26 8 14 1012.4 1012.0 0.0
23/03:00pm 23.3 21.4 12.9 52 6.0 SSE 15 30 8 16 1012.5 1012.2 0.0
23/02:30pm 23.3 20.6 12.9 52 6.0 SSE 19 28 10 15 1012.6 1012.3 0.0
23/02:00pm 23.6 21.3 12.9 51 6.2 SSE 17 28 9 15 1012.8 1012.5 0.0
23/01:30pm 23.7 21.3 12.7 50 6.3 SSE 17 28 9 15 1013.1 1012.8 0.0
23/01:00pm 23.8 21.6 12.1 48 6.7 SSE 15 26 8 14 1013.2 1012.9 0.0
23/12:30pm 23.6 21.0 12.0 48 6.6 SSW 17 28 9 15 1013.8 1013.5 0.0
23/12:00pm 23.7 21.3 11.4 46 6.9 S 15 30 8 16 1014.0 1013.7 0.0
23/11:30am 23.4 20.5 11.1 46 6.9 SSE 17 28 9 15 1014.4 1014.1 0.0
23/11:00am 23.2 20.8 12.5 51 6.1 SSE 17 28 9 15 1014.6 1014.3 0.0
23/10:30am 22.8 20.7 12.4 52 5.9 SSE 15 26 8 14 1015.1 1014.8 0.0

Other Formats:

Comma delimited format used in spreadsheet applications
http://www.bom.gov.au/fwo/IDW60801/IDW60801.94647.axf

JavaScript Object Notation format (JSON) in row-major order
http://www.bom.gov.au/fwo/IDW60801/IDW60801.94647.json